createdAt,value
2018-08-06T00:01:01.995Z,102220.92
2018-08-06T00:03:31.226Z,102217.55
2018-08-06T00:06:00.183Z,102213.79
2018-08-06T00:08:29.090Z,102218.31
2018-08-06T00:10:58.091Z,102216.17
2018-08-06T00:13:26.904Z,102211.11
2018-08-06T00:15:55.774Z,102210.16
2018-08-06T00:18:25.167Z,102205.02
2018-08-06T00:20:54.500Z,102202.70
2018-08-06T00:23:23.325Z,102204.81
2018-08-06T00:25:52.209Z,102203.64
2018-08-06T00:28:21.016Z,102200.68
2018-08-06T00:30:49.849Z,102193.93
2018-08-06T00:33:18.709Z,102194.97
2018-08-06T00:35:47.490Z,102196.55
2018-08-06T00:38:16.307Z,102193.35
2018-08-06T00:40:45.293Z,102191.53
2018-08-06T00:43:14.064Z,102191.53
2018-08-06T00:45:42.923Z,102191.97
2018-08-06T00:48:11.844Z,102185.48
2018-08-06T00:50:40.678Z,102189.48
2018-08-06T00:53:09.569Z,102194.62
2018-08-06T00:55:38.566Z,102190.96
2018-08-06T00:58:07.472Z,102185.55
2018-08-06T01:00:36.281Z,102189.62
2018-08-06T01:03:05.477Z,102190.85
2018-08-06T01:05:34.296Z,102189.25
2018-08-06T01:08:03.139Z,102190.34
2018-08-06T01:10:32.215Z,102187.41
2018-08-06T01:13:01.104Z,102187.97
2018-08-06T01:15:29.977Z,102177.80
2018-08-06T01:17:58.862Z,102178.97
2018-08-06T01:20:27.699Z,102184.05
2018-08-06T01:22:56.660Z,102185.27
2018-08-06T01:25:25.593Z,102185.42
2018-08-06T01:27:54.395Z,102184.21
2018-08-06T01:30:23.244Z,102185.27
2018-08-06T01:32:52.290Z,102182.89
2018-08-06T01:35:21.167Z,102184.62
2018-08-06T01:37:50.042Z,102181.01
2018-08-06T01:40:18.944Z,102179.47
2018-08-06T01:42:47.862Z,102181.05
2018-08-06T01:45:16.785Z,102177.04
2018-08-06T01:47:45.863Z,102175.52
2018-08-06T01:50:15.943Z,102178.09
2018-08-06T01:52:44.934Z,102177.62
2018-08-06T01:55:13.764Z,102173.48
2018-08-06T01:57:42.421Z,102176.19
2018-08-06T02:00:15.073Z,102178.78
2018-08-06T02:02:44.103Z,102169.07
2018-08-06T02:05:13.008Z,102170.33
2018-08-06T02:07:42.044Z,102167.35
2018-08-06T02:10:12.880Z,102166.66
2018-08-06T02:12:42.372Z,102163.76
2018-08-06T02:15:12.069Z,102157.57
2018-08-06T02:17:40.877Z,102159.53
2018-08-06T02:20:15.693Z,102157.88
2018-08-06T02:22:46.026Z,102149.02
2018-08-06T02:25:14.835Z,102146.55
2018-08-06T02:27:44.127Z,102145.90
2018-08-06T02:30:14.739Z,102142.66
2018-08-06T02:32:43.717Z,102141.00
2018-08-06T02:35:14.048Z,102142.70
2018-08-06T02:37:43.487Z,102132.91
2018-08-06T02:40:19.399Z,102128.40
2018-08-06T02:42:48.625Z,102126.73
2018-08-06T02:45:18.316Z,102125.84
2018-08-06T02:47:47.602Z,102123.01
2018-08-06T02:50:16.448Z,102117.27
2018-08-06T02:52:45.370Z,102113.51
2018-08-06T02:55:15.456Z,102118.92
2018-08-06T02:57:44.380Z,102122.24
2018-08-06T03:00:15.680Z,102123.69
2018-08-06T03:02:45.584Z,102120.02
2018-08-06T03:05:16.257Z,102114.09
2018-08-06T03:07:45.850Z,102112.81
2018-08-06T03:10:14.735Z,102109.47
2018-08-06T03:12:44.410Z,102107.95
2018-08-06T03:15:13.401Z,102108.06
2018-08-06T03:17:42.315Z,102111.47
2018-08-06T03:20:12.782Z,102109.19
2018-08-06T03:22:41.768Z,102109.91
2018-08-06T03:25:13.831Z,102107.92
2018-08-06T03:27:43.549Z,102112.83
2018-08-06T03:30:15.702Z,102118.05
2018-08-06T03:32:45.719Z,102110.48
2018-08-06T03:35:14.621Z,102109.82
2018-08-06T03:37:43.557Z,102112.16
2018-08-06T03:40:12.643Z,102115.58
2018-08-06T03:42:41.760Z,102115.17
2018-08-06T03:45:12.681Z,102113.25
2018-08-06T03:47:42.147Z,102108.37
2018-08-06T03:50:12.394Z,102114.68
2018-08-06T03:52:41.505Z,102116.12
2018-08-06T03:55:11.048Z,102111.87
2018-08-06T03:57:40.654Z,102117.77
2018-08-06T04:00:12.321Z,102118.42
2018-08-06T04:02:41.793Z,102119.27
2018-08-06T04:05:12.040Z,102120.64
2018-08-06T04:07:41.149Z,102112.47
2018-08-06T04:10:13.956Z,102118.91
2018-08-06T04:12:42.773Z,102117.53
2018-08-06T04:15:12.234Z,102116.85
2018-08-06T04:17:41.975Z,102114.91
2018-08-06T04:20:11.966Z,102121.72
2018-08-06T04:22:41.754Z,102120.25
2018-08-06T04:25:10.678Z,102116.44
2018-08-06T04:27:39.305Z,102115.83
2018-08-06T04:30:11.099Z,102113.71
2018-08-06T04:32:40.219Z,102107.47
2018-08-06T04:35:09.141Z,102100.68
2018-08-06T04:37:38.009Z,102097.75
2018-08-06T04:40:09.081Z,102098.45
2018-08-06T04:42:38.251Z,102096.33
2018-08-06T04:45:12.414Z,102093.13
2018-08-06T04:47:41.840Z,102089.28
2018-08-06T04:50:13.475Z,102091.05
2018-08-06T04:52:42.564Z,102086.09
2018-08-06T04:55:12.871Z,102083.75
2018-08-06T04:57:41.845Z,102088.58
2018-08-06T05:00:13.307Z,102091.54
2018-08-06T05:02:42.658Z,102091.78
2018-08-06T05:05:11.459Z,102087.50
2018-08-06T05:07:40.472Z,102087.56
2018-08-06T05:10:09.101Z,102090.91
2018-08-06T05:12:38.146Z,102085.31
2018-08-06T05:15:07.141Z,102087.14
2018-08-06T05:17:36.191Z,102085.58
2018-08-06T05:20:05.839Z,102087.58
2018-08-06T05:22:34.666Z,102088.30
2018-08-06T05:25:03.931Z,102086.03
2018-08-06T05:27:32.927Z,102088.73
2018-08-06T05:30:01.790Z,102083.50
2018-08-06T05:32:30.697Z,102088.27
2018-08-06T05:34:59.465Z,102088.45
2018-08-06T05:37:28.294Z,102091.89
2018-08-06T05:39:57.213Z,102088.38
2018-08-06T05:42:26.121Z,102090.66
2018-08-06T05:44:55.015Z,102088.38
2018-08-06T05:47:24.363Z,102089.61
2018-08-06T05:49:53.311Z,102084.69
2018-08-06T05:52:22.407Z,102090.45
2018-08-06T05:54:51.260Z,102090.39
2018-08-06T05:57:20.270Z,102088.09
2018-08-06T05:59:49.093Z,102095.40
2018-08-06T06:02:18.122Z,102104.22
2018-08-06T06:04:46.986Z,102103.51
2018-08-06T06:07:15.868Z,102101.05
2018-08-06T06:09:44.866Z,102100.52
2018-08-06T06:12:13.735Z,102100.98
2018-08-06T06:14:42.580Z,102101.33
2018-08-06T06:17:11.597Z,102094.26
2018-08-06T06:19:40.441Z,102098.77
2018-08-06T06:22:09.111Z,102087.77
2018-08-06T06:24:38.088Z,102088.51
2018-08-06T06:27:07.012Z,102092.03
2018-08-06T06:29:35.903Z,102089.41
2018-08-06T06:32:04.794Z,102076.58
2018-08-06T06:34:33.508Z,102083.48
2018-08-06T06:37:02.713Z,102085.62
2018-08-06T06:39:31.688Z,102085.73
2018-08-06T06:42:00.668Z,102091.16
2018-08-06T06:44:29.523Z,102092.09
2018-08-06T06:46:58.736Z,102093.71
2018-08-06T06:49:27.564Z,102091.73
2018-08-06T06:51:56.396Z,102089.20
2018-08-06T06:54:25.274Z,102092.12
2018-08-06T06:56:54.002Z,102090.77
2018-08-06T06:59:23.037Z,102086.80
2018-08-06T07:01:51.866Z,102085.04
2018-08-06T07:04:20.558Z,102084.63
2018-08-06T07:06:49.178Z,102083.88
2018-08-06T07:09:18.078Z,102080.97
2018-08-06T07:11:46.803Z,102077.39
2018-08-06T07:14:15.806Z,102077.53
2018-08-06T07:16:44.622Z,102075.34
2018-08-06T07:19:13.564Z,102065.69
2018-08-06T07:21:42.485Z,102068.48
2018-08-06T07:24:11.552Z,102062.67
2018-08-06T07:26:40.456Z,102062.55
2018-08-06T07:29:09.313Z,102059.48
2018-08-06T07:31:38.499Z,102053.53
2018-08-06T07:34:07.417Z,102051.88
2018-08-06T07:36:36.202Z,102050.48
2018-08-06T07:39:09.137Z,102060.39
2018-08-06T07:41:37.998Z,102053.00
2018-08-06T07:44:07.169Z,102052.41
2018-08-06T07:46:36.563Z,102053.34
2018-08-06T07:49:05.556Z,102052.05
2018-08-06T07:51:34.390Z,102050.05
2018-08-06T07:54:03.406Z,102044.24
2018-08-06T07:56:32.188Z,102043.54
2018-08-06T07:59:01.105Z,102045.67
2018-08-06T08:01:30.306Z,102046.33
2018-08-06T08:03:58.956Z,102035.98
2018-08-06T08:06:27.894Z,102040.50
2018-08-06T08:08:56.816Z,102040.68
2018-08-06T08:11:25.798Z,102036.87
2018-08-06T08:13:54.742Z,102036.30
2018-08-06T08:16:23.569Z,102023.35
2018-08-06T08:18:52.485Z,102027.52
2018-08-06T08:21:21.546Z,102031.69
2018-08-06T08:23:50.445Z,102026.64
2018-08-06T08:26:19.433Z,102010.92
2018-08-06T08:28:48.303Z,102022.37
2018-08-06T08:31:17.148Z,102009.70
2018-08-06T08:33:45.979Z,102007.45
2018-08-06T08:36:14.924Z,102003.98
2018-08-06T08:38:43.637Z,101998.73
2018-08-06T08:41:12.506Z,101998.23
2018-08-06T08:43:41.360Z,101988.38
2018-08-06T08:46:10.023Z,101992.13
2018-08-06T08:48:38.947Z,101979.73
2018-08-06T08:51:08.031Z,101981.63
2018-08-06T08:53:36.725Z,101979.78
2018-08-06T08:56:05.754Z,101980.80
2018-08-06T08:58:34.787Z,101973.83
2018-08-06T09:01:03.709Z,101976.84
2018-08-06T09:03:32.787Z,101967.49
2018-08-06T09:06:01.650Z,101965.69
2018-08-06T09:08:30.551Z,101969.25
2018-08-06T09:10:59.465Z,101959.95
2018-08-06T09:13:28.384Z,101956.30
2018-08-06T09:15:57.289Z,101960.27
2018-08-06T09:18:26.155Z,101954.68
2018-08-06T09:20:54.825Z,101959.25
2018-08-06T09:23:23.675Z,101956.19
2018-08-06T09:25:52.499Z,101948.84
2018-08-06T09:28:21.563Z,101946.46
2018-08-06T09:30:50.428Z,101949.09
2018-08-06T09:33:19.316Z,101950.39
2018-08-06T09:35:48.125Z,101951.10
2018-08-06T09:38:17.103Z,101949.97
2018-08-06T09:40:46.099Z,101942.78
2018-08-06T09:43:14.986Z,101942.94
2018-08-06T09:45:43.798Z,101943.30
2018-08-06T09:48:12.761Z,101937.88
2018-08-06T09:50:41.411Z,101934.15
2018-08-06T09:53:10.372Z,101933.63
2018-08-06T09:55:39.295Z,101919.37
2018-08-06T09:58:08.160Z,101916.55
2018-08-06T10:00:44.959Z,101911.34
2018-08-06T10:03:13.896Z,101910.14
2018-08-06T10:05:42.616Z,101905.91
2018-08-06T10:08:11.202Z,101895.52
2018-08-06T10:10:40.310Z,101903.48
2018-08-06T10:13:09.325Z,101895.57
2018-08-06T10:15:38.315Z,101893.87
2018-08-06T10:18:07.205Z,101899.95
2018-08-06T10:20:36.084Z,101882.66
2018-08-06T10:23:05.071Z,101887.95
2018-08-06T10:25:34.036Z,101883.56
2018-08-06T10:28:03.015Z,101878.01
2018-08-06T10:30:31.900Z,101869.20
2018-08-06T10:33:00.783Z,101869.44
2018-08-06T10:35:29.739Z,101870.67
2018-08-06T10:37:58.588Z,101871.13
2018-08-06T10:40:27.663Z,101869.07
2018-08-06T10:42:56.469Z,101855.98
2018-08-06T10:45:31.508Z,101850.83
2018-08-06T10:48:00.143Z,101847.81
2018-08-06T10:50:29.468Z,101850.31
2018-08-06T10:52:58.390Z,101843.07
2018-08-06T10:55:28.136Z,101843.86
2018-08-06T10:57:57.062Z,101841.95
2018-08-06T11:00:25.944Z,101848.75
2018-08-06T11:02:54.941Z,101840.77
2018-08-06T11:05:23.759Z,101831.91
2018-08-06T11:07:52.667Z,101831.41
2018-08-06T11:10:22.870Z,101832.15
2018-08-06T11:12:51.719Z,101827.19
2018-08-06T11:15:24.033Z,101826.25
2018-08-06T11:17:53.004Z,101816.55
2018-08-06T11:20:22.348Z,101811.98
2018-08-06T11:22:51.219Z,101810.52
2018-08-06T11:25:21.906Z,101800.95
2018-08-06T11:27:51.011Z,101795.81
2018-08-06T11:30:21.169Z,101797.02
2018-08-06T11:32:51.126Z,101789.12
2018-08-06T11:35:20.041Z,101797.16
2018-08-06T11:37:48.945Z,101784.88
2018-08-06T11:40:18.173Z,101780.33
2018-08-06T11:42:47.832Z,101773.16
2018-08-06T11:45:18.215Z,101776.37
2018-08-06T11:47:47.131Z,101774.88
2018-08-06T11:50:15.956Z,101775.02
2018-08-06T11:52:45.328Z,101774.09
2018-08-06T11:55:14.209Z,101767.39
2018-08-06T11:57:43.142Z,101763.96
2018-08-06T12:00:17.975Z,101751.28
2018-08-06T12:02:46.919Z,101754.07
2018-08-06T12:05:16.104Z,101754.70
2018-08-06T12:07:45.248Z,101747.04
2018-08-06T12:10:16.072Z,101744.39
2018-08-06T12:12:45.948Z,101749.80
2018-08-06T12:15:15.008Z,101738.01
2018-08-06T12:17:43.939Z,101734.50
2018-08-06T12:20:16.301Z,101739.10
2018-08-06T12:22:46.332Z,101729.88
2018-08-06T12:25:16.076Z,101733.16
2018-08-06T12:27:45.552Z,101730.01
2018-08-06T12:30:17.260Z,101724.55
2018-08-06T12:32:46.812Z,101721.09
2018-08-06T12:35:16.184Z,101708.53
2018-08-06T12:37:45.686Z,101708.75
2018-08-06T12:40:16.513Z,101709.69
2018-08-06T12:42:45.488Z,101704.55
2018-08-06T12:45:20.316Z,101703.37
2018-08-06T12:47:49.198Z,101689.01
2018-08-06T12:50:18.154Z,101702.36
2018-08-06T12:52:47.033Z,101697.48
2018-08-06T12:55:16.932Z,101698.13
2018-08-06T12:57:46.175Z,101684.98
2018-08-06T13:00:21.155Z,101688.44
2018-08-06T13:02:50.828Z,101680.70
2018-08-06T13:05:20.384Z,101676.37
2018-08-06T13:07:49.423Z,101676.14
2018-08-06T13:10:18.288Z,101680.26
2018-08-06T13:12:47.274Z,101676.11
2018-08-06T13:15:16.618Z,101677.08
2018-08-06T13:17:45.661Z,101670.61
2018-08-06T13:20:14.507Z,101661.94
2018-08-06T13:22:43.564Z,101658.24
2018-08-06T13:25:13.129Z,101652.67
2018-08-06T13:27:42.042Z,101653.92
2018-08-06T13:30:14.224Z,101631.98
2018-08-06T13:32:43.820Z,101638.93
2018-08-06T13:35:13.689Z,101636.23
2018-08-06T13:37:42.666Z,101633.80
2018-08-06T13:40:12.108Z,101627.20
2018-08-06T13:42:41.088Z,101622.30
2018-08-06T13:45:12.328Z,101627.28
2018-08-06T13:47:41.424Z,101622.98
2018-08-06T13:50:11.232Z,101614.21
2018-08-06T13:52:40.295Z,101620.56
2018-08-06T13:55:10.969Z,101618.25
2018-08-06T13:57:40.185Z,101614.88
2018-08-06T14:00:14.825Z,101612.50
2018-08-06T14:02:44.054Z,101602.86
2018-08-06T14:05:14.235Z,101615.45
2018-08-06T14:07:44.419Z,101600.54
2018-08-06T14:10:13.368Z,101596.55
2018-08-06T14:12:42.257Z,101598.09
2018-08-06T14:15:12.116Z,101602.33
2018-08-06T14:17:41.650Z,101598.68
2018-08-06T14:20:12.944Z,101595.98
2018-08-06T14:22:41.798Z,101588.77
2018-08-06T14:25:11.451Z,101585.08
2018-08-06T14:27:40.472Z,101582.37
2018-08-06T14:30:12.236Z,101579.69
2018-08-06T14:32:41.560Z,101576.59
2018-08-06T14:35:10.596Z,101573.34
2018-08-06T14:37:39.559Z,101569.42
2018-08-06T14:40:13.073Z,101573.53
2018-08-06T14:42:41.823Z,101574.47
2018-08-06T14:45:16.729Z,101568.64
2018-08-06T14:47:45.864Z,101568.52
2018-08-06T14:50:15.210Z,101557.09
2018-08-06T14:52:44.179Z,101551.08
2018-08-06T14:55:14.102Z,101547.20
2018-08-06T14:57:43.037Z,101546.84
2018-08-06T15:00:22.447Z,101542.40
2018-08-06T15:02:52.531Z,101537.09
2018-08-06T15:05:21.431Z,101540.77
2018-08-06T15:07:50.371Z,101538.80
2018-08-06T15:10:19.252Z,101539.62
2018-08-06T15:12:48.101Z,101532.14
2018-08-06T15:15:17.948Z,101529.41
2018-08-06T15:17:48.020Z,101538.13
2018-08-06T15:20:18.200Z,101534.70
2018-08-06T15:22:47.577Z,101524.84
2018-08-06T15:25:19.335Z,101514.41
2018-08-06T15:27:48.503Z,101508.36
2018-08-06T15:30:17.393Z,101507.63
2018-08-06T15:32:46.413Z,101510.82
2018-08-06T15:35:15.367Z,101508.10
2018-08-06T15:37:44.731Z,101506.53
2018-08-06T15:40:17.145Z,101504.13
2018-08-06T15:42:46.103Z,101505.34
2018-08-06T15:45:20.962Z,101500.09
2018-08-06T15:47:49.848Z,101503.42
2018-08-06T15:50:20.328Z,101499.59
2018-08-06T15:52:49.473Z,101495.20
2018-08-06T15:55:18.324Z,101481.11
2018-08-06T15:57:47.287Z,101485.52
2018-08-06T16:00:18.247Z,101471.44
2018-08-06T16:02:47.422Z,101479.58
2018-08-06T16:05:16.341Z,101483.56
2018-08-06T16:07:45.579Z,101478.80
2018-08-06T16:10:15.088Z,101476.84
2018-08-06T16:12:43.998Z,101472.23
2018-08-06T16:15:13.947Z,101460.98
2018-08-06T16:17:43.612Z,101463.34
2018-08-06T16:20:14.916Z,101458.45
2018-08-06T16:22:44.030Z,101457.16
2018-08-06T16:25:13.571Z,101456.87
2018-08-06T16:27:42.545Z,101454.91
2018-08-06T16:30:19.412Z,101454.13
2018-08-06T16:32:48.638Z,101456.12
2018-08-06T16:35:19.560Z,101446.66
2018-08-06T16:37:49.759Z,101442.34
2018-08-06T16:40:18.718Z,101435.88
2018-08-06T16:42:48.694Z,101435.58
2018-08-06T16:45:23.706Z,101428.90
2018-08-06T16:47:52.880Z,101429.98
2018-08-06T16:50:21.888Z,101433.83
2018-08-06T16:52:50.924Z,101433.78
2018-08-06T16:55:19.481Z,101437.42
2018-08-06T16:57:48.355Z,101437.73
2018-08-06T17:00:21.114Z,101431.67
2018-08-06T17:02:51.240Z,101434.05
2018-08-06T17:05:20.335Z,101421.64
2018-08-06T17:07:49.739Z,101427.17
2018-08-06T17:10:19.423Z,101420.39
2018-08-06T17:12:50.656Z,101417.88
2018-08-06T17:15:20.596Z,101417.81
2018-08-06T17:17:51.308Z,101421.56
2018-08-06T17:20:21.375Z,101422.55
2018-08-06T17:22:51.108Z,101423.97
2018-08-06T17:25:20.193Z,101420.95
2018-08-06T17:27:49.068Z,101421.20
2018-08-06T17:30:18.245Z,101421.39
2018-08-06T17:32:47.199Z,101419.12
2018-08-06T17:35:16.543Z,101412.71
2018-08-06T17:37:45.572Z,101418.06
2018-08-06T17:40:17.917Z,101416.02
2018-08-06T17:42:47.159Z,101416.22
2018-08-06T17:45:23.201Z,101414.63
2018-08-06T17:47:52.238Z,101409.66
2018-08-06T17:50:22.284Z,101402.80
2018-08-06T17:52:51.847Z,101405.47
2018-08-06T17:55:24.301Z,101401.12
2018-08-06T17:57:53.121Z,101400.05
2018-08-06T18:00:21.798Z,101407.59
2018-08-06T18:02:50.927Z,101403.05
2018-08-06T18:05:19.562Z,101404.34
2018-08-06T18:07:48.581Z,101406.71
2018-08-06T18:10:17.767Z,101402.30
2018-08-06T18:12:47.016Z,101398.11
2018-08-06T18:15:16.006Z,101395.30
2018-08-06T18:17:45.009Z,101394.34
2018-08-06T18:20:15.786Z,101394.97
2018-08-06T18:22:44.868Z,101391.84
2018-08-06T18:25:15.967Z,101387.62
2018-08-06T18:27:46.052Z,101394.92
2018-08-06T18:30:21.007Z,101389.28
2018-08-06T18:32:49.851Z,101392.69
2018-08-06T18:35:19.487Z,101387.05
2018-08-06T18:37:48.586Z,101394.80
2018-08-06T18:40:18.811Z,101389.55
2018-08-06T18:42:48.219Z,101397.60
2018-08-06T18:45:18.261Z,101397.09
2018-08-06T18:47:47.899Z,101401.42
2018-08-06T18:50:17.656Z,101403.09
2018-08-06T18:52:47.330Z,101395.66
2018-08-06T18:55:16.572Z,101406.17
2018-08-06T18:57:45.915Z,101401.36
2018-08-06T19:00:18.804Z,101403.57
2018-08-06T19:02:47.896Z,101406.70
2018-08-06T19:05:17.001Z,101404.91
2018-08-06T19:07:45.678Z,101405.03
2018-08-06T19:10:14.553Z,101405.19
2018-08-06T19:12:48.874Z,101402.16
2018-08-06T19:15:17.896Z,101402.00
2018-08-06T19:17:52.443Z,101400.11
2018-08-06T19:20:21.362Z,101399.58
2018-08-06T19:22:50.332Z,101401.52
2018-08-06T19:25:27.397Z,101406.92
2018-08-06T19:27:56.540Z,101402.55
2018-08-06T19:30:31.023Z,101404.90
2018-08-06T19:33:00.888Z,101409.85
2018-08-06T19:35:30.111Z,101416.56
2018-08-06T19:37:59.020Z,101416.26
2018-08-06T19:40:28.628Z,101413.34
2018-08-06T19:43:03.011Z,101416.48
2018-08-06T19:45:38.267Z,101422.48
2018-08-06T19:48:06.926Z,101418.38
2018-08-06T19:50:41.206Z,101414.01
2018-08-06T19:53:10.015Z,101413.37
2018-08-06T19:55:44.738Z,101409.13
2018-08-06T19:58:13.640Z,101404.69
2018-08-06T20:00:43.885Z,101407.33
2018-08-06T20:03:12.691Z,101402.45
2018-08-06T20:05:41.599Z,101402.28
2018-08-06T20:08:10.625Z,101413.87
2018-08-06T20:10:39.428Z,101411.17
2018-08-06T20:13:08.477Z,101410.48
2018-08-06T20:15:37.349Z,101406.73
2018-08-06T20:18:06.261Z,101408.19
2018-08-06T20:20:35.323Z,101407.67
2018-08-06T20:23:04.258Z,101407.14
2018-08-06T20:25:33.060Z,101412.86
2018-08-06T20:28:02.124Z,101409.00
2018-08-06T20:30:31.019Z,101406.27
2018-08-06T20:32:59.887Z,101417.77
2018-08-06T20:35:28.916Z,101413.16
2018-08-06T20:37:57.745Z,101415.42
2018-08-06T20:40:26.709Z,101416.11
2018-08-06T20:42:55.779Z,101416.72
2018-08-06T20:45:24.628Z,101416.65
2018-08-06T20:47:53.432Z,101418.14
2018-08-06T20:50:23.314Z,101421.48
2018-08-06T20:52:53.179Z,101420.16
2018-08-06T20:55:22.275Z,101422.15
2018-08-06T20:57:51.338Z,101426.61
2018-08-06T21:00:22.923Z,101425.64
2018-08-06T21:02:52.539Z,101428.50
2018-08-06T21:05:21.653Z,101424.36
2018-08-06T21:07:50.691Z,101427.20
2018-08-06T21:10:20.185Z,101433.59
2018-08-06T21:12:49.441Z,101424.95
2018-08-06T21:15:18.407Z,101434.39
2018-08-06T21:17:47.415Z,101434.31
2018-08-06T21:20:17.957Z,101441.77
2018-08-06T21:22:48.106Z,101440.94
2018-08-06T21:25:17.030Z,101446.30
2018-08-06T21:27:47.228Z,101443.52
2018-08-06T21:30:18.953Z,101436.81
2018-08-06T21:32:54.332Z,101435.05
2018-08-06T21:35:24.669Z,101443.27
2018-08-06T21:37:54.433Z,101439.73
2018-08-06T21:40:24.488Z,101434.57
2018-08-06T21:42:53.623Z,101430.84
2018-08-06T21:45:22.474Z,101425.61
2018-08-06T21:47:51.372Z,101428.16
2018-08-06T21:50:20.399Z,101422.77
2018-08-06T21:52:49.548Z,101419.67
2018-08-06T21:55:18.516Z,101416.90
2018-08-06T21:57:47.413Z,101415.14
2018-08-06T22:00:34.230Z,101422.77
2018-08-06T22:03:04.378Z,101415.93
2018-08-06T22:05:33.456Z,101414.31
2018-08-06T22:08:02.334Z,101415.82
2018-08-06T22:10:31.301Z,101414.98
2018-08-06T22:13:00.188Z,101420.59
2018-08-06T22:15:29.156Z,101420.34
2018-08-06T22:17:58.199Z,101416.59
2018-08-06T22:20:27.087Z,101420.36
2018-08-06T22:22:55.807Z,101410.25
2018-08-06T22:25:24.820Z,101410.64
2018-08-06T22:27:53.859Z,101412.08
2018-08-06T22:30:22.948Z,101412.23
2018-08-06T22:32:51.964Z,101406.63
2018-08-06T22:35:20.863Z,101406.77
2018-08-06T22:37:49.735Z,101402.38
2018-08-06T22:40:18.799Z,101400.18
2018-08-06T22:42:47.708Z,101405.19
2018-08-06T22:45:22.759Z,101403.84
2018-08-06T22:47:51.579Z,101410.24
2018-08-06T22:50:20.473Z,101405.34
2018-08-06T22:52:49.527Z,101405.84
2018-08-06T22:55:18.384Z,101401.21
2018-08-06T22:57:47.289Z,101398.67
2018-08-06T23:00:16.855Z,101399.85
2018-08-06T23:02:45.756Z,101398.39
2018-08-06T23:05:16.133Z,101395.49
2018-08-06T23:07:45.117Z,101399.73
2018-08-06T23:10:16.488Z,101395.27
2018-08-06T23:12:46.080Z,101391.81
2018-08-06T23:15:16.499Z,101393.67
2018-08-06T23:17:45.692Z,101389.22
2018-08-06T23:20:14.662Z,101395.52
2018-08-06T23:22:43.819Z,101391.28
2018-08-06T23:25:12.769Z,101385.74
2018-08-06T23:27:41.724Z,101385.78
2018-08-06T23:30:13.524Z,101384.24
2018-08-06T23:32:42.496Z,101386.07
2018-08-06T23:35:12.593Z,101377.55
2018-08-06T23:37:42.609Z,101379.05
2018-08-06T23:40:12.671Z,101377.63
2018-08-06T23:42:42.498Z,101367.55
2018-08-06T23:45:13.800Z,101370.39
2018-08-06T23:47:42.804Z,101368.97
2018-08-06T23:50:13.817Z,101363.91
2018-08-06T23:52:44.075Z,101365.65
2018-08-06T23:55:15.426Z,101356.08
2018-08-06T23:57:44.184Z,101358.34
